createdAt,value
2019-05-12T00:00:28.819Z,0.20
2019-05-12T00:02:59.285Z,0.10
2019-05-12T00:05:28.070Z,0.20
2019-05-12T00:07:58.870Z,0.30
2019-05-12T00:10:28.330Z,0.20
2019-05-12T00:12:58.165Z,0.20
2019-05-12T00:15:27.959Z,0.20
2019-05-12T00:17:58.630Z,0.25
2019-05-12T00:20:28.292Z,0.20
2019-05-12T00:23:23.298Z,0.20
2019-05-12T00:25:58.679Z,0.28
2019-05-12T00:28:28.364Z,0.37
2019-05-12T00:30:58.037Z,0.20
2019-05-12T00:33:28.252Z,0.20
2019-05-12T00:35:58.742Z,0.30
2019-05-12T00:38:27.860Z,0.30
2019-05-12T00:40:58.250Z,0.40
2019-05-12T00:43:28.094Z,0.40
2019-05-12T00:45:58.525Z,0.53
2019-05-12T00:48:28.258Z,0.62
2019-05-12T00:50:58.412Z,0.70
2019-05-12T00:53:39.344Z,0.88
2019-05-12T00:55:57.940Z,0.88
2019-05-12T00:58:27.765Z,0.88
2019-05-12T01:00:59.318Z,0.72
2019-05-12T01:03:27.983Z,0.80
2019-05-12T01:05:57.749Z,0.70
2019-05-12T01:08:28.064Z,0.70
2019-05-12T01:10:58.282Z,0.60
2019-05-12T01:13:27.971Z,0.65
2019-05-12T01:15:58.689Z,0.90
2019-05-12T01:18:28.070Z,0.62
2019-05-12T01:20:58.324Z,0.70
2019-05-12T01:23:28.139Z,0.72
2019-05-12T01:25:58.550Z,0.93
2019-05-12T01:28:27.846Z,0.70
2019-05-12T01:30:58.358Z,0.93
2019-05-12T01:33:27.730Z,0.82
2019-05-12T01:35:58.483Z,0.80
2019-05-12T01:38:28.581Z,0.57
2019-05-12T01:40:58.378Z,0.78
2019-05-12T01:43:27.785Z,0.65
2019-05-12T01:45:58.634Z,0.70
2019-05-12T01:48:28.556Z,0.70
2019-05-12T01:50:57.979Z,0.50
2019-05-12T01:53:28.615Z,0.50
2019-05-12T01:55:58.494Z,0.50
2019-05-12T01:58:27.805Z,0.45
2019-05-12T02:00:58.667Z,0.45
2019-05-12T02:03:28.364Z,0.40
2019-05-12T02:06:00.869Z,0.30
2019-05-12T02:08:39.700Z,0.28
2019-05-12T02:11:25.616Z,0.35
2019-05-12T02:13:54.015Z,0.23
2019-05-12T02:16:22.449Z,0.30
2019-05-12T02:18:50.865Z,0.35
2019-05-12T02:21:19.175Z,0.35
2019-05-12T02:23:47.869Z,0.40
2019-05-12T02:26:18.747Z,0.33
2019-05-12T02:28:47.903Z,0.60
2019-05-12T02:31:15.999Z,0.30
2019-05-12T02:33:44.726Z,0.50
2019-05-12T02:36:15.144Z,0.50
2019-05-12T02:38:45.238Z,0.45
2019-05-12T02:41:15.445Z,0.50
2019-05-12T02:43:45.688Z,0.40
2019-05-12T02:46:15.602Z,0.47
2019-05-12T02:48:44.954Z,0.40
2019-05-12T02:51:15.598Z,0.50
2019-05-12T02:53:46.856Z,0.60
2019-05-12T02:56:15.240Z,0.43
2019-05-12T02:58:45.376Z,0.50
2019-05-12T03:01:15.378Z,0.50
2019-05-12T03:03:45.133Z,0.40
2019-05-12T03:06:15.107Z,0.50
2019-05-12T03:08:44.957Z,0.37
2019-05-12T03:11:14.810Z,0.37
2019-05-12T03:13:44.841Z,0.50
2019-05-12T03:16:14.991Z,0.60
2019-05-12T03:18:45.030Z,0.50
2019-05-12T03:21:15.252Z,0.50
2019-05-12T03:23:44.671Z,0.60
2019-05-12T03:26:15.358Z,0.50
2019-05-12T03:28:44.597Z,0.50
2019-05-12T03:31:22.471Z,0.50
2019-05-12T03:33:52.259Z,0.53
2019-05-12T03:36:17.868Z,0.60
2019-05-12T03:38:44.771Z,0.50
2019-05-12T03:41:14.646Z,0.40
2019-05-12T03:43:44.825Z,0.70
2019-05-12T03:46:15.304Z,0.50
2019-05-12T03:48:45.369Z,0.60
2019-05-12T03:51:15.496Z,0.60
2019-05-12T03:53:45.411Z,0.33
2019-05-12T03:56:15.075Z,0.60
2019-05-12T03:58:45.298Z,0.40
2019-05-12T04:01:15.017Z,0.50
2019-05-12T04:03:45.136Z,0.60
2019-05-12T04:06:15.400Z,0.40
2019-05-12T04:08:45.609Z,0.47
2019-05-12T04:11:14.738Z,0.40
2019-05-12T04:13:45.149Z,0.30
2019-05-12T04:16:16.352Z,0.50
2019-05-12T04:18:45.140Z,0.30
2019-05-12T04:21:15.649Z,0.30
2019-05-12T04:23:44.418Z,0.30
2019-05-12T04:26:16.849Z,0.27
2019-05-12T04:28:45.578Z,0.50
2019-05-12T04:31:15.526Z,0.37
2019-05-12T04:33:45.187Z,0.30
2019-05-12T04:36:14.820Z,0.30
2019-05-12T04:38:45.008Z,0.30
2019-05-12T04:41:14.524Z,0.43
2019-05-12T04:43:44.789Z,0.43
2019-05-12T04:46:14.508Z,0.27
2019-05-12T04:48:45.386Z,0.23
2019-05-12T04:51:15.344Z,0.20
2019-05-12T04:53:44.898Z,0.20
2019-05-12T04:56:19.875Z,0.20
2019-05-12T04:59:04.985Z,0.20
2019-05-12T05:01:34.673Z,0.30
2019-05-12T05:04:05.446Z,0.10
2019-05-12T05:06:34.224Z,0.20
2019-05-12T05:09:05.132Z,0.20
2019-05-12T05:11:34.555Z,0.40
2019-05-12T05:14:04.253Z,0.30
2019-05-12T05:16:34.625Z,0.20
2019-05-12T05:19:03.757Z,0.10
2019-05-12T05:21:34.232Z,0.53
2019-05-12T05:24:03.798Z,0.30
2019-05-12T05:26:34.904Z,0.20
2019-05-12T05:29:04.297Z,0.30
2019-05-12T05:31:33.751Z,0.20
2019-05-12T05:34:04.719Z,0.30
2019-05-12T05:36:34.550Z,0.40
2019-05-12T05:39:05.818Z,0.20
2019-05-12T05:41:34.614Z,0.20
2019-05-12T05:44:03.230Z,0.30
2019-05-12T05:46:33.657Z,0.20
2019-05-12T05:49:04.051Z,0.33
2019-05-12T05:51:33.522Z,0.20
2019-05-12T05:54:03.995Z,0.30
2019-05-12T05:56:42.481Z,0.17
2019-05-12T05:59:04.668Z,0.20
2019-05-12T06:01:34.490Z,0.10
2019-05-12T06:04:04.338Z,0.20
2019-05-12T06:06:34.121Z,0.30
2019-05-12T06:09:03.732Z,0.20
2019-05-12T06:11:34.453Z,0.20
2019-05-12T06:14:11.110Z,0.20
2019-05-12T06:16:34.083Z,0.20
2019-05-12T06:19:03.439Z,0.20
2019-05-12T06:21:36.237Z,0.30
2019-05-12T06:24:03.540Z,0.20
2019-05-12T06:26:35.371Z,0.20
2019-05-12T06:29:04.219Z,0.40
2019-05-12T06:31:33.382Z,0.27
2019-05-12T06:34:06.211Z,0.30
2019-05-12T06:36:34.034Z,0.20
2019-05-12T06:39:04.351Z,0.17
2019-05-12T06:41:33.657Z,0.13
2019-05-12T06:44:03.743Z,0.30
2019-05-12T06:46:34.208Z,0.30
2019-05-12T06:49:10.190Z,0.30
2019-05-12T06:51:54.708Z,0.27
2019-05-12T06:54:24.617Z,0.40
2019-05-12T06:56:57.852Z,0.30
2019-05-12T06:59:23.737Z,0.47
2019-05-12T07:01:58.724Z,0.40
2019-05-12T07:04:24.057Z,0.27
2019-05-12T07:06:56.066Z,0.30
2019-05-12T07:09:27.926Z,0.30
2019-05-12T07:12:01.838Z,0.20
2019-05-12T07:14:27.100Z,0.20
2019-05-12T07:17:01.699Z,0.30
2019-05-12T07:19:25.591Z,0.20
2019-05-12T07:21:58.219Z,0.30
2019-05-12T07:24:24.446Z,0.30
2019-05-12T07:26:54.771Z,0.30
2019-05-12T07:29:23.940Z,0.20
2019-05-12T07:31:53.734Z,0.30
2019-05-12T07:34:24.044Z,0.30
2019-05-12T07:36:55.567Z,0.30
2019-05-12T07:39:24.773Z,0.33
2019-05-12T07:41:54.946Z,0.20
2019-05-12T07:44:26.121Z,0.50
2019-05-12T07:46:54.538Z,0.30
2019-05-12T07:49:34.526Z,0.20
2019-05-12T07:51:54.179Z,0.20
2019-05-12T07:54:23.608Z,0.30
2019-05-12T07:56:53.976Z,0.30
2019-05-12T07:59:26.663Z,0.33
2019-05-12T08:01:54.915Z,0.30
2019-05-12T08:04:23.915Z,0.30
2019-05-12T08:06:53.842Z,0.23
2019-05-12T08:09:24.187Z,0.30
2019-05-12T08:11:54.096Z,0.30
2019-05-12T08:14:28.850Z,0.30
2019-05-12T08:16:54.286Z,0.40
2019-05-12T08:19:25.727Z,0.27
2019-05-12T08:21:53.750Z,0.30
2019-05-12T08:24:23.624Z,0.33
2019-05-12T08:26:59.556Z,0.40
2019-05-12T08:29:24.360Z,0.27
2019-05-12T08:31:54.868Z,0.70
2019-05-12T08:34:23.756Z,0.40
2019-05-12T08:36:56.381Z,0.40
2019-05-12T08:39:25.820Z,0.50
2019-05-12T08:41:53.552Z,0.23
2019-05-12T08:44:25.004Z,0.43
2019-05-12T08:46:56.375Z,0.40
2019-05-12T08:49:23.584Z,0.50
2019-05-12T08:51:57.866Z,0.60
2019-05-12T08:54:23.282Z,0.50
2019-05-12T08:56:59.301Z,0.50
2019-05-12T08:59:26.632Z,0.60
2019-05-12T09:01:54.119Z,0.30
2019-05-12T09:04:24.218Z,0.60
2019-05-12T09:06:56.717Z,0.70
2019-05-12T09:09:33.724Z,0.60
2019-05-12T09:12:03.604Z,0.80
2019-05-12T09:14:35.597Z,0.70
2019-05-12T09:17:06.626Z,0.60
2019-05-12T09:19:33.179Z,0.60
2019-05-12T09:22:04.916Z,0.67
2019-05-12T09:24:33.757Z,0.60
2019-05-12T09:27:07.022Z,0.50
2019-05-12T09:29:34.058Z,0.70
2019-05-12T09:32:05.475Z,0.60
2019-05-12T09:34:33.549Z,0.70
2019-05-12T09:37:04.042Z,0.50
2019-05-12T09:39:34.049Z,0.50
2019-05-12T09:42:03.793Z,0.80
2019-05-12T09:44:34.102Z,0.80
2019-05-12T09:47:04.078Z,0.70
2019-05-12T09:49:39.075Z,0.80
2019-05-12T09:52:03.702Z,0.80
2019-05-12T09:54:35.401Z,0.50
2019-05-12T09:57:04.411Z,0.70
2019-05-12T09:59:33.599Z,0.88
2019-05-12T10:02:03.759Z,0.73
2019-05-12T10:04:33.107Z,0.60
2019-05-12T10:07:03.747Z,0.80
2019-05-12T10:09:33.520Z,1.00
2019-05-12T10:12:03.287Z,0.70
2019-05-12T10:14:31.846Z,0.60
2019-05-12T10:17:00.225Z,0.90
2019-05-12T10:19:28.309Z,0.80
2019-05-12T10:21:59.472Z,0.80
2019-05-12T10:24:26.513Z,1.07
2019-05-12T10:26:54.920Z,0.80
2019-05-12T10:29:24.400Z,0.97
2019-05-12T10:31:53.663Z,0.80
2019-05-12T10:34:23.977Z,0.90
2019-05-12T10:36:53.738Z,1.05
2019-05-12T10:39:24.485Z,1.20
2019-05-12T10:41:54.559Z,1.00
2019-05-12T10:44:23.141Z,1.10
2019-05-12T10:46:53.824Z,1.20
2019-05-12T10:49:23.357Z,1.10
2019-05-12T10:51:53.811Z,1.37
2019-05-12T10:54:24.102Z,1.40
2019-05-12T10:56:54.549Z,1.52
2019-05-12T10:59:32.340Z,0.95
2019-05-12T11:01:53.937Z,1.10
2019-05-12T11:04:25.122Z,1.30
2019-05-12T11:06:53.778Z,1.30
2019-05-12T11:09:29.431Z,1.87
2019-05-12T11:11:53.949Z,1.95
2019-05-12T11:14:26.583Z,1.63
2019-05-12T11:16:54.225Z,2.23
2019-05-12T11:19:22.766Z,2.83
2019-05-12T11:21:53.667Z,2.20
2019-05-12T11:24:22.109Z,2.10
2019-05-12T11:26:50.505Z,2.20
2019-05-12T11:29:18.920Z,2.40
2019-05-12T11:31:47.384Z,2.42
2019-05-12T11:34:15.821Z,2.10
2019-05-12T11:36:43.899Z,3.20
2019-05-12T11:39:14.124Z,2.47
2019-05-12T11:41:44.318Z,1.87
2019-05-12T11:44:13.202Z,1.95
2019-05-12T11:46:44.142Z,2.35
2019-05-12T11:49:13.834Z,2.00
2019-05-12T11:51:41.982Z,2.33
2019-05-12T11:54:10.894Z,2.75
2019-05-12T11:56:40.480Z,3.05
2019-05-12T11:59:10.088Z,2.75
2019-05-12T12:01:39.667Z,2.70
2019-05-12T12:04:08.100Z,2.83
2019-05-12T12:06:36.164Z,2.35
2019-05-12T12:09:09.173Z,2.75
2019-05-12T12:11:37.152Z,2.73
2019-05-12T12:14:10.239Z,2.83
2019-05-12T12:16:35.702Z,3.10
2019-05-12T12:19:05.826Z,3.55
2019-05-12T12:21:35.107Z,2.92
2019-05-12T12:24:03.988Z,3.02
2019-05-12T12:26:37.035Z,3.20
2019-05-12T12:29:03.454Z,2.83
2019-05-12T12:31:37.315Z,2.90
2019-05-12T12:34:03.450Z,3.25
2019-05-12T12:36:34.051Z,2.85
2019-05-12T12:39:04.087Z,2.60
2019-05-12T12:41:34.038Z,3.40
2019-05-12T12:44:04.429Z,3.23
2019-05-12T12:46:33.817Z,2.83
2019-05-12T12:49:06.388Z,3.08
2019-05-12T12:51:34.132Z,3.40
2019-05-12T12:54:03.284Z,3.12
2019-05-12T12:56:33.984Z,3.52
2019-05-12T12:59:10.196Z,3.50
2019-05-12T13:01:33.508Z,3.02
2019-05-12T13:04:04.809Z,3.60
2019-05-12T13:06:34.421Z,3.10
2019-05-12T13:09:07.895Z,3.60
2019-05-12T13:11:34.754Z,3.60
2019-05-12T13:14:04.121Z,3.50
2019-05-12T13:16:34.361Z,3.55
2019-05-12T13:19:03.828Z,4.25
2019-05-12T13:21:33.596Z,4.10
2019-05-12T13:24:03.659Z,3.62
2019-05-12T13:26:32.325Z,3.20
2019-05-12T13:29:00.737Z,3.83
2019-05-12T13:31:28.816Z,4.00
2019-05-12T13:33:56.967Z,3.42
2019-05-12T13:36:29.671Z,4.08
2019-05-12T13:38:55.504Z,3.30
2019-05-12T13:41:24.044Z,3.30
2019-05-12T13:43:55.901Z,3.62
2019-05-12T13:46:23.879Z,3.30
2019-05-12T13:48:57.763Z,3.62
2019-05-12T13:51:24.116Z,3.42
2019-05-12T13:53:52.449Z,3.85
2019-05-12T13:56:27.455Z,4.10
2019-05-12T13:58:51.072Z,2.98
2019-05-12T14:01:20.887Z,3.67
2019-05-12T14:03:50.922Z,4.22
2019-05-12T14:06:23.030Z,3.65
2019-05-12T14:08:49.750Z,4.20
2019-05-12T14:11:18.866Z,3.75
2019-05-12T14:13:47.546Z,3.65
2019-05-12T14:16:15.960Z,4.30
2019-05-12T14:18:44.369Z,4.05
2019-05-12T14:21:24.476Z,3.17
2019-05-12T14:23:54.318Z,3.85
2019-05-12T14:26:24.237Z,4.42
2019-05-12T14:28:53.315Z,3.45
2019-05-12T14:31:30.131Z,3.55
2019-05-12T14:33:54.006Z,2.58
2019-05-12T14:36:26.571Z,2.85
2019-05-12T14:38:54.362Z,3.08
2019-05-12T14:41:26.502Z,3.20
2019-05-12T14:44:01.440Z,3.23
2019-05-12T14:46:24.238Z,3.52
2019-05-12T14:48:54.298Z,3.10
2019-05-12T14:51:24.408Z,4.55
2019-05-12T14:53:53.546Z,3.53
2019-05-12T14:56:23.377Z,4.47
2019-05-12T14:58:56.588Z,5.60
2019-05-12T15:01:23.871Z,5.47
2019-05-12T15:03:53.535Z,4.00
2019-05-12T15:06:25.673Z,5.45
2019-05-12T15:08:54.103Z,3.80
2019-05-12T15:11:23.733Z,3.83
2019-05-12T15:13:54.175Z,4.25
2019-05-12T15:16:31.757Z,3.58
2019-05-12T15:18:58.366Z,3.70
2019-05-12T15:21:31.182Z,5.03
2019-05-12T15:23:56.905Z,6.10
2019-05-12T15:26:25.512Z,4.90
2019-05-12T15:28:54.384Z,5.25
2019-05-12T15:31:23.540Z,3.30
2019-05-12T15:33:52.275Z,3.27
2019-05-12T15:36:20.676Z,3.30
2019-05-12T15:38:54.486Z,3.70
2019-05-12T15:41:20.205Z,3.65
2019-05-12T15:43:49.378Z,4.08
2019-05-12T15:46:18.687Z,4.08
2019-05-12T15:48:47.089Z,4.55
2019-05-12T15:51:15.485Z,3.45
2019-05-12T15:53:44.551Z,3.80
2019-05-12T15:56:16.524Z,3.30
2019-05-12T15:58:44.190Z,3.72
2019-05-12T16:01:13.904Z,3.40
2019-05-12T16:03:43.840Z,3.33
2019-05-12T16:06:14.954Z,3.30
2019-05-12T16:08:42.820Z,3.58
2019-05-12T16:11:13.809Z,3.83
2019-05-12T16:13:44.846Z,3.30
2019-05-12T16:16:14.004Z,3.50
2019-05-12T16:18:46.702Z,3.17
2019-05-12T16:21:11.732Z,3.10
2019-05-12T16:23:40.154Z,3.92
2019-05-12T16:26:12.652Z,3.83
2019-05-12T16:28:38.784Z,3.70
2019-05-12T16:31:08.638Z,4.05
2019-05-12T16:33:37.498Z,3.95
2019-05-12T16:36:11.303Z,4.53
2019-05-12T16:38:36.050Z,3.95
2019-05-12T16:41:04.480Z,4.45
2019-05-12T16:43:34.972Z,5.97
2019-05-12T16:46:04.419Z,4.70
2019-05-12T16:48:35.542Z,4.30
2019-05-12T16:51:03.374Z,4.12
2019-05-12T16:53:33.949Z,3.95
2019-05-12T16:56:04.119Z,4.17
2019-05-12T16:58:35.152Z,3.92
2019-05-12T17:01:03.738Z,3.67
2019-05-12T17:03:34.177Z,5.08
2019-05-12T17:06:03.498Z,6.05
2019-05-12T17:08:34.278Z,4.25
2019-05-12T17:11:23.116Z,5.00
2019-05-12T17:13:34.059Z,4.45
2019-05-12T17:16:04.282Z,4.55
2019-05-12T17:18:33.995Z,4.15
2019-05-12T17:21:04.294Z,4.72
2019-05-12T17:23:32.808Z,4.45
2019-05-12T17:26:20.582Z,4.83
2019-05-12T17:28:48.701Z,4.03
2019-05-12T17:31:16.768Z,2.98
2019-05-12T17:33:44.853Z,3.50
2019-05-12T17:36:17.556Z,3.50
2019-05-12T17:38:44.045Z,4.15
2019-05-12T17:41:15.516Z,4.00
2019-05-12T17:43:54.742Z,3.67
2019-05-12T17:46:17.977Z,4.78
2019-05-12T17:48:44.939Z,3.77
2019-05-12T17:51:13.790Z,4.03
2019-05-12T17:53:43.375Z,4.30
2019-05-12T17:56:13.962Z,4.00
2019-05-12T17:58:45.226Z,3.95
2019-05-12T18:01:14.578Z,3.77
2019-05-12T18:03:48.703Z,5.45
2019-05-12T18:06:14.133Z,3.77
2019-05-12T18:08:44.345Z,3.95
2019-05-12T18:11:15.802Z,3.80
2019-05-12T18:13:43.116Z,3.55
2019-05-12T18:16:19.785Z,4.03
2019-05-12T18:18:43.545Z,4.12
2019-05-12T18:21:21.204Z,4.85
2019-05-12T18:23:43.638Z,4.00
2019-05-12T18:26:16.040Z,4.05
2019-05-12T18:28:44.264Z,3.45
2019-05-12T18:31:13.844Z,3.92
2019-05-12T18:33:51.363Z,4.15
2019-05-12T18:36:14.381Z,3.70
2019-05-12T18:38:44.784Z,4.00
2019-05-12T18:41:13.949Z,3.45
2019-05-12T18:43:43.548Z,3.70
2019-05-12T18:46:14.061Z,4.30
2019-05-12T18:48:42.347Z,3.50
2019-05-12T18:51:14.722Z,3.22
2019-05-12T18:53:40.882Z,4.05
2019-05-12T18:56:10.240Z,3.75
2019-05-12T18:58:39.504Z,4.65
2019-05-12T19:01:07.981Z,4.33
2019-05-12T19:03:47.248Z,3.60
2019-05-12T19:06:06.513Z,4.12
2019-05-12T19:08:34.919Z,3.83
2019-05-12T19:11:17.968Z,4.00
2019-05-12T19:13:51.891Z,4.50
2019-05-12T19:16:16.760Z,4.80
2019-05-12T19:18:47.839Z,3.87
2019-05-12T19:21:16.628Z,4.05
2019-05-12T19:23:45.077Z,3.70
2019-05-12T19:26:13.704Z,4.00
2019-05-12T19:28:52.472Z,3.95
2019-05-12T19:31:14.151Z,2.83
2019-05-12T19:33:52.991Z,4.17
2019-05-12T19:36:13.628Z,3.80
2019-05-12T19:38:43.905Z,3.87
2019-05-12T19:41:14.000Z,3.23
2019-05-12T19:43:45.345Z,3.60
2019-05-12T19:46:13.631Z,4.00
2019-05-12T19:48:49.078Z,3.67
2019-05-12T19:51:21.968Z,3.65
2019-05-12T19:53:43.797Z,4.37
2019-05-12T19:56:14.225Z,3.95
2019-05-12T19:58:43.846Z,4.12
2019-05-12T20:01:14.031Z,4.17
2019-05-12T20:03:43.959Z,4.62
2019-05-12T20:06:13.556Z,4.37
2019-05-12T20:08:43.726Z,4.28
2019-05-12T20:11:14.288Z,3.85
2019-05-12T20:13:44.307Z,4.65
2019-05-12T20:16:21.319Z,5.10
2019-05-12T20:18:48.864Z,4.75
2019-05-12T20:21:13.753Z,4.33
2019-05-12T20:23:43.912Z,5.33
2019-05-12T20:26:14.376Z,4.60
2019-05-12T20:28:50.135Z,4.00
2019-05-12T20:31:13.891Z,3.80
2019-05-12T20:33:43.462Z,4.78
2019-05-12T20:36:14.127Z,4.40
2019-05-12T20:38:44.450Z,4.37
2019-05-12T20:41:21.884Z,3.67
2019-05-12T20:43:44.272Z,3.37
2019-05-12T20:46:21.511Z,2.87
2019-05-12T20:48:44.635Z,3.00
2019-05-12T20:51:15.347Z,3.12
2019-05-12T20:53:43.711Z,2.70
2019-05-12T20:56:18.527Z,2.60
2019-05-12T20:58:45.854Z,2.67
2019-05-12T21:01:13.925Z,2.62
2019-05-12T21:03:46.264Z,2.00
2019-05-12T21:06:14.574Z,3.20
2019-05-12T21:08:46.594Z,3.25
2019-05-12T21:11:13.518Z,2.42
2019-05-12T21:13:43.941Z,2.65
2019-05-12T21:16:17.587Z,2.30
2019-05-12T21:18:47.917Z,2.55
2019-05-12T21:21:14.150Z,1.92
2019-05-12T21:23:45.596Z,2.10
2019-05-12T21:26:12.547Z,2.10
2019-05-12T21:28:46.166Z,2.35
2019-05-12T21:31:11.086Z,2.58
2019-05-12T21:33:41.621Z,2.20
2019-05-12T21:36:15.495Z,2.27
2019-05-12T21:38:39.745Z,1.95
2019-05-12T21:41:10.041Z,2.13
2019-05-12T21:43:38.286Z,2.37
2019-05-12T21:46:12.351Z,2.20
2019-05-12T21:48:36.821Z,2.47
2019-05-12T21:51:09.890Z,2.50
2019-05-12T21:53:35.358Z,2.35
2019-05-12T21:56:04.365Z,2.52
2019-05-12T21:58:33.550Z,2.37
2019-05-12T22:01:05.220Z,2.60
2019-05-12T22:03:33.769Z,2.47
2019-05-12T22:06:12.156Z,2.57
2019-05-12T22:08:33.836Z,2.47
2019-05-12T22:11:09.146Z,2.77
2019-05-12T22:13:32.284Z,2.12
2019-05-12T22:16:00.701Z,2.77
2019-05-12T22:18:29.103Z,3.47
2019-05-12T22:21:01.667Z,2.95
2019-05-12T22:23:28.321Z,3.22
2019-05-12T22:26:00.224Z,2.77
2019-05-12T22:28:26.196Z,2.50
2019-05-12T22:30:54.604Z,3.22
2019-05-12T22:33:24.188Z,2.75
2019-05-12T22:36:02.913Z,4.80
2019-05-12T22:38:24.823Z,3.80
2019-05-12T22:40:56.059Z,3.25
2019-05-12T22:43:23.865Z,2.60
2019-05-12T22:45:54.522Z,2.90
2019-05-12T22:48:22.496Z,2.70
2019-05-12T22:50:50.907Z,2.10
2019-05-12T22:53:24.671Z,2.33
2019-05-12T22:55:49.197Z,2.45
2019-05-12T22:58:22.423Z,2.60
2019-05-12T23:00:54.767Z,2.77
2019-05-12T23:03:18.004Z,2.87
2019-05-12T23:05:50.642Z,2.98
2019-05-12T23:08:16.196Z,3.22
2019-05-12T23:10:51.392Z,2.57
2019-05-12T23:13:14.432Z,2.90
2019-05-12T23:15:47.606Z,3.00
2019-05-12T23:18:13.296Z,2.55
2019-05-12T23:20:43.701Z,2.40
2019-05-12T23:23:15.378Z,3.15
2019-05-12T23:25:41.307Z,2.77
2019-05-12T23:28:10.650Z,2.70
2019-05-12T23:30:43.921Z,2.95
2019-05-12T23:33:09.596Z,3.10
2019-05-12T23:35:39.649Z,3.30
2019-05-12T23:38:10.573Z,2.57
2019-05-12T23:40:37.760Z,2.75
2019-05-12T23:43:06.165Z,2.47
2019-05-12T23:45:34.569Z,2.60
2019-05-12T23:48:03.885Z,2.90
2019-05-12T23:50:32.701Z,2.37
2019-05-12T23:53:00.786Z,2.83
2019-05-12T23:55:48.630Z,3.13
2019-05-12T23:58:17.031Z,2.87
